Time;durP1;ratioP1;P1;durP2;ratioP2;P2;SDS_P1;SDS_P2;PMS_P1;PMS_P2;Temp;Humidity;BMP_temperature;BMP_pressure;BME280_temperature;BME280_humidity;BME280_pressure;Samples;Min_cycle;Max_cycle;Signal;HPM_P1;HPM_P2
2022/07/16 00:03:32;;;;;;;6.22;2.90;;;27.90;50.20;;;;;;5039932;28;20036;-61
2022/07/16 00:05:57;;;;;;;4.97;2.70;;;27.80;50.30;;;;;;5039510;28;20025;-61
2022/07/16 00:08:23;;;;;;;9.13;2.75;;;27.80;50.30;;;;;;5039353;28;20048;-62
2022/07/16 00:10:49;;;;;;;4.30;2.50;;;27.80;50.40;;;;;;5039713;28;20021;-61
2022/07/16 00:13:14;;;;;;;5.28;2.47;;;27.80;50.40;;;;;;5036802;28;20044;-61
2022/07/16 00:15:40;;;;;;;6.30;2.80;;;27.70;50.50;;;;;;5039604;28;20291;-60
2022/07/16 00:20:49;;;;;;;4.28;2.50;;;27.70;50.40;;;;;;5037172;28;20087;-61
2022/07/16 00:23:15;;;;;;;4.45;2.65;;;27.70;50.50;;;;;;5041879;28;20021;-61
2022/07/16 00:25:40;;;;;;;7.22;2.50;;;27.60;51.20;;;;;;5035966;28;20156;-60
2022/07/16 00:28:06;;;;;;;4.82;2.50;;;27.60;50.60;;;;;;5036548;28;20376;-61
2022/07/16 00:30:31;;;;;;;5.60;2.60;;;27.50;50.60;;;;;;5039451;28;20105;-61
2022/07/16 00:32:57;;;;;;;5.15;2.75;;;27.50;50.70;;;;;;5038949;28;21433;-61
2022/07/16 00:35:22;;;;;;;6.50;2.60;;;27.50;50.70;;;;;;5021887;28;20037;-61
2022/07/16 00:37:48;;;;;;;5.68;2.63;;;27.50;50.70;;;;;;5038182;28;20035;-61
2022/07/16 00:40:13;;;;;;;5.63;2.33;;;27.40;50.80;;;;;;5037454;28;20083;-61
2022/07/16 00:42:39;;;;;;;4.28;2.42;;;27.40;50.80;;;;;;5040361;28;20040;-61
2022/07/16 00:45:05;;;;;;;5.47;2.42;;;27.40;51.00;;;;;;5041252;28;20028;-62
2022/07/16 00:47:30;;;;;;;4.13;2.30;;;27.30;50.80;;;;;;5021597;28;21503;-61
2022/07/16 00:49:56;;;;;;;4.95;2.70;;;27.30;50.90;;;;;;5038557;28;20036;-61
2022/07/16 00:52:22;;;;;;;5.07;2.60;;;27.30;50.90;;;;;;5038612;28;20109;-61
2022/07/16 00:54:48;;;;;;;5.65;2.63;;;27.30;51.00;;;;;;5022870;28;20120;-61
2022/07/16 00:57:13;;;;;;;4.43;2.72;;;27.30;51.00;;;;;;5036547;28;20031;-61
2022/07/16 00:59:39;;;;;;;7.57;3.00;;;27.20;51.00;;;;;;5021336;28;20021;-61
2022/07/16 01:02:04;;;;;;;6.78;3.22;;;27.10;51.10;;;;;;5037711;28;20116;-61
2022/07/16 01:04:30;;;;;;;6.20;2.67;;;27.10;51.10;;;;;;5036321;28;20790;-61
2022/07/16 01:06:56;;;;;;;5.05;2.70;;;27.10;51.20;;;;;;5039667;28;20390;-61
2022/07/16 01:09:21;;;;;;;4.45;2.60;;;27.10;51.20;;;;;;5038379;28;20024;-61
2022/07/16 01:11:47;;;;;;;3.58;2.30;;;27.10;51.20;;;;;;5037553;28;20051;-61
2022/07/16 01:14:14;;;;;;;4.72;2.47;;;27.00;51.20;;;;;;5038118;28;20098;-62
2022/07/16 01:16:39;;;;;;;7.18;2.85;;;27.00;51.30;;;;;;5037110;28;20025;-62
2022/07/16 01:19:06;;;;;;;5.55;2.80;;;27.00;51.40;;;;;;5022102;28;20036;-61
2022/07/16 01:21:31;;;;;;;4.38;3.10;;;27.00;51.40;;;;;;5018651;28;20036;-61
2022/07/16 01:23:57;;;;;;;5.22;2.60;;;26.90;51.40;;;;;;5040818;28;20036;-61
2022/07/16 01:26:22;;;;;;;6.20;2.78;;;26.90;51.40;;;;;;5038977;28;20457;-61
2022/07/16 01:28:48;;;;;;;4.43;2.75;;;26.90;51.40;;;;;;5041489;28;20134;-61
2022/07/16 01:31:13;;;;;;;5.45;3.00;;;26.80;51.50;;;;;;5042982;28;20158;-61
2022/07/16 01:33:40;;;;;;;8.65;2.78;;;26.80;51.50;;;;;;5042506;28;20106;-61
2022/07/16 01:36:08;;;;;;;5.82;2.60;;;26.80;51.60;;;;;;5040893;28;20168;-61
2022/07/16 01:38:34;;;;;;;4.95;2.97;;;26.80;51.70;;;;;;5025478;28;20126;-61
2022/07/16 01:40:59;;;;;;;7.55;2.95;;;26.70;51.70;;;;;;5021023;28;20072;-60
2022/07/16 01:43:27;;;;;;;3.38;2.35;;;26.70;51.80;;;;;;5025670;28;20059;-61
2022/07/16 01:45:52;;;;;;;4.60;2.70;;;26.60;51.70;;;;;;5009669;28;20024;-61
2022/07/16 01:48:19;;;;;;;2.92;2.40;;;26.60;51.80;;;;;;5043309;28;20017;-61
2022/07/16 01:50:45;;;;;;;3.95;2.63;;;26.60;51.80;;;;;;5042532;28;20507;-62
2022/07/16 01:53:11;;;;;;;4.28;2.47;;;26.50;51.80;;;;;;5041534;28;20041;-61
2022/07/16 01:55:36;;;;;;;6.43;2.60;;;26.50;51.90;;;;;;5040910;28;20487;-61
2022/07/16 01:58:03;;;;;;;3.47;2.65;;;26.50;51.90;;;;;;5027563;28;20041;-61
2022/07/16 02:00:28;;;;;;;4.97;2.60;;;26.40;51.90;;;;;;5042603;28;20078;-61
2022/07/16 02:02:54;;;;;;;3.80;2.25;;;26.40;51.90;;;;;;5023688;28;20040;-60
2022/07/16 02:05:19;;;;;;;4.68;2.58;;;26.40;52.00;;;;;;5041996;28;20029;-61
2022/07/16 02:07:45;;;;;;;3.78;2.95;;;26.40;52.10;;;;;;5040477;28;20069;-61
2022/07/16 02:10:10;;;;;;;4.70;2.58;;;26.30;52.00;;;;;;5043303;28;20116;-61
2022/07/16 02:12:36;;;;;;;7.72;2.67;;;26.30;52.10;;;;;;5043836;28;20380;-61
2022/07/16 02:15:02;;;;;;;4.82;2.30;;;26.20;52.10;;;;;;5040420;28;20021;-61
2022/07/16 02:17:27;;;;;;;4.47;2.33;;;26.30;52.20;;;;;;5040007;28;20025;-62
2022/07/16 02:19:53;;;;;;;5.03;2.60;;;26.20;52.20;;;;;;5042298;28;20041;-61
2022/07/16 02:22:18;;;;;;;4.18;2.45;;;26.20;52.20;;;;;;5007297;28;20021;-62
2022/07/16 02:24:44;;;;;;;4.40;2.47;;;26.20;52.20;;;;;;5040786;28;20156;-60
2022/07/16 02:27:09;;;;;;;2.78;2.03;;;26.10;52.20;;;;;;5042718;28;20049;-61
2022/07/16 02:29:35;;;;;;;5.18;2.35;;;26.10;52.30;;;;;;5040168;28;20164;-61
2022/07/16 02:32:00;;;;;;;4.75;2.28;;;26.10;52.40;;;;;;5041201;28;20059;-61
2022/07/16 02:34:26;;;;;;;3.13;2.33;;;26.10;52.40;;;;;;5041287;28;20051;-61
2022/07/16 02:36:51;;;;;;;4.65;2.50;;;26.00;52.40;;;;;;5039980;28;20056;-60
2022/07/16 02:39:17;;;;;;;4.38;2.20;;;26.00;52.50;;;;;;5039693;28;20052;-61
2022/07/16 02:41:42;;;;;;;7.35;2.42;;;25.90;52.40;;;;;;5038580;28;20025;-61
2022/07/16 02:44:08;;;;;;;4.55;2.72;;;25.90;52.50;;;;;;5021821;28;20091;-61
2022/07/16 02:46:33;;;;;;;4.35;2.42;;;25.90;52.50;;;;;;5039774;28;20154;-61
2022/07/16 02:48:59;;;;;;;5.32;2.58;;;25.90;52.50;;;;;;5040428;28;20439;-61
2022/07/16 02:51:25;;;;;;;6.28;2.63;;;25.90;52.60;;;;;;5037967;28;20056;-61
2022/07/16 02:53:50;;;;;;;3.75;2.15;;;25.80;52.60;;;;;;5042239;28;20029;-61
2022/07/16 02:56:16;;;;;;;3.72;2.47;;;25.80;52.70;;;;;;5039912;28;20658;-61
2022/07/16 02:58:41;;;;;;;3.45;2.17;;;25.80;52.70;;;;;;5038915;28;20067;-61
2022/07/16 03:01:07;;;;;;;2.88;2.00;;;25.80;52.70;;;;;;5040105;28;20137;-61
2022/07/16 03:03:32;;;;;;;4.38;2.00;;;25.70;52.80;;;;;;5037424;28;20071;-60
2022/07/16 03:05:58;;;;;;;3.53;2.33;;;25.70;52.80;;;;;;5040227;28;20113;-61
2022/07/16 03:08:23;;;;;;;4.47;2.30;;;25.70;52.80;;;;;;5022429;28;20099;-61
2022/07/16 03:10:49;;;;;;;4.40;2.20;;;25.70;52.90;;;;;;5040521;28;20431;-60
2022/07/16 03:13:15;;;;;;;5.55;2.17;;;25.60;52.80;;;;;;5039268;28;20776;-61
2022/07/16 03:15:40;;;;;;;3.20;2.40;;;25.60;52.90;;;;;;5037544;28;20029;-61
2022/07/16 03:18:06;;;;;;;6.82;2.00;;;25.60;53.00;;;;;;5040990;28;20033;-61
2022/07/16 03:20:31;;;;;;;3.88;2.13;;;25.60;53.10;;;;;;5023840;28;20090;-61
2022/07/16 03:22:57;;;;;;;6.78;2.17;;;25.50;53.10;;;;;;5039136;28;20194;-61
2022/07/16 03:25:23;;;;;;;9.07;2.30;;;25.50;53.10;;;;;;5040773;28;20060;-61
2022/07/16 03:27:48;;;;;;;3.83;2.00;;;25.40;53.10;;;;;;5041911;28;20025;-61
2022/07/16 03:30:14;;;;;;;5.43;3.45;;;25.40;53.10;;;;;;5007840;28;20112;-61
2022/07/16 03:32:39;;;;;;;3.50;3.13;;;25.40;53.20;;;;;;5038771;28;20055;-60
2022/07/16 03:35:06;;;;;;;8.00;3.08;;;25.40;53.20;;;;;;5040300;28;20106;-61
2022/07/16 03:37:32;;;;;;;5.25;2.95;;;25.30;53.30;;;;;;5039242;28;20032;-60
2022/07/16 03:39:58;;;;;;;3.58;2.42;;;25.30;53.20;;;;;;5022977;28;20721;-60
2022/07/16 03:42:23;;;;;;;3.05;2.67;;;25.30;53.30;;;;;;5023995;28;20461;-61
2022/07/16 03:44:49;;;;;;;3.63;2.47;;;25.30;53.30;;;;;;5040567;28;20049;-61
2022/07/16 03:47:14;;;;;;;3.55;2.58;;;25.30;53.30;;;;;;5039978;28;20028;-60
2022/07/16 03:49:40;;;;;;;5.68;2.42;;;25.20;53.40;;;;;;5040538;28;20052;-61
2022/07/16 03:52:05;;;;;;;5.72;2.65;;;25.20;53.40;;;;;;5041583;28;20063;-60
2022/07/16 03:54:31;;;;;;;5.90;2.80;;;25.10;53.40;;;;;;5040373;28;20208;-61
2022/07/16 03:56:56;;;;;;;5.50;2.80;;;25.20;53.50;;;;;;5039254;28;20593;-61
2022/07/16 03:59:22;;;;;;;3.72;2.40;;;25.20;53.60;;;;;;5039278;28;20076;-61
2022/07/16 04:01:47;;;;;;;4.40;2.50;;;25.20;53.60;;;;;;5040550;28;20430;-61
2022/07/16 04:04:13;;;;;;;8.45;2.85;;;25.10;53.60;;;;;;5021493;28;20063;-60
2022/07/16 04:06:39;;;;;;;6.43;2.85;;;25.10;53.70;;;;;;5040410;28;20067;-60
2022/07/16 04:09:04;;;;;;;4.72;2.15;;;25.10;53.70;;;;;;5038329;28;20121;-61
2022/07/16 04:11:30;;;;;;;5.53;2.58;;;25.10;53.70;;;;;;5041082;28;20476;-61
2022/07/16 04:13:55;;;;;;;4.72;2.50;;;25.00;53.70;;;;;;5039385;28;20045;-61
2022/07/16 04:16:21;;;;;;;4.47;2.55;;;25.10;53.80;;;;;;5038138;28;20045;-61
2022/07/16 04:18:46;;;;;;;7.53;2.55;;;25.00;53.80;;;;;;5037891;28;20124;-60
2022/07/16 04:21:12;;;;;;;6.75;2.63;;;25.00;53.80;;;;;;5041029;28;20579;-61
2022/07/16 04:23:37;;;;;;;6.30;2.75;;;24.90;53.80;;;;;;5036541;28;20473;-61
2022/07/16 04:26:03;;;;;;;5.70;2.63;;;24.90;53.90;;;;;;5038611;28;20035;-61
2022/07/16 04:28:28;;;;;;;10.48;2.42;;;24.90;54.00;;;;;;5037458;28;20021;-61
2022/07/16 04:30:54;;;;;;;5.65;2.40;;;24.80;54.00;;;;;;5037787;28;20041;-60
2022/07/16 04:33:19;;;;;;;5.60;2.53;;;24.80;54.10;;;;;;5021825;28;20063;-60
2022/07/16 04:35:45;;;;;;;5.45;2.47;;;24.80;54.10;;;;;;5039633;28;20048;-61
2022/07/16 04:38:11;;;;;;;6.40;2.55;;;24.80;54.20;;;;;;5040997;28;20029;-61
2022/07/16 04:40:36;;;;;;;3.20;2.17;;;24.80;54.20;;;;;;5039131;28;20041;-61
2022/07/16 04:43:02;;;;;;;6.88;2.40;;;24.80;54.30;;;;;;5040989;28;20044;-60
2022/07/16 04:45:27;;;;;;;3.88;2.50;;;24.70;54.30;;;;;;5039355;28;20064;-60
2022/07/16 04:47:53;;;;;;;6.18;2.33;;;24.80;54.30;;;;;;5040003;28;20209;-61
2022/07/16 04:50:18;;;;;;;4.90;2.28;;;24.70;54.30;;;;;;5041664;28;20029;-61
2022/07/16 04:52:44;;;;;;;7.05;2.33;;;24.70;54.30;;;;;;5038033;28;20109;-61
2022/07/16 04:55:09;;;;;;;4.55;2.22;;;24.70;54.40;;;;;;5040360;28;20534;-60
2022/07/16 04:57:35;;;;;;;5.18;2.40;;;24.70;54.40;;;;;;5037711;28;20031;-61
2022/07/16 05:00:01;;;;;;;4.97;2.28;;;24.60;54.50;;;;;;5038447;28;20405;-61
2022/07/16 05:05:10;;;;;;;5.13;2.22;;;24.60;54.60;;;;;;5039773;28;20064;-61
2022/07/16 05:07:36;;;;;;;3.60;1.88;;;24.60;54.70;;;;;;5039632;28;20064;-61
2022/07/16 05:10:02;;;;;;;7.93;2.20;;;24.50;54.60;;;;;;5038897;28;20076;-61
2022/07/16 05:12:27;;;;;;;5.05;2.45;;;24.50;54.60;;;;;;5038398;28;20025;-60
2022/07/16 05:14:53;;;;;;;3.72;2.10;;;24.50;54.70;;;;;;5038656;28;20029;-61
2022/07/16 05:17:18;;;;;;;3.47;2.08;;;24.50;54.60;;;;;;5037422;28;20292;-61
2022/07/16 05:19:44;;;;;;;6.90;2.25;;;24.50;54.70;;;;;;5036671;28;20422;-61
2022/07/16 05:22:09;;;;;;;5.47;2.25;;;24.60;54.70;;;;;;5038464;28;20493;-61
2022/07/16 05:24:36;;;;;;;5.25;2.13;;;24.50;54.70;;;;;;5038465;28;20029;-60
2022/07/16 05:27:01;;;;;;;2.97;2.00;;;24.40;54.70;;;;;;5037028;28;20033;-60
2022/07/16 05:29:27;;;;;;;4.22;2.50;;;24.40;54.80;;;;;;5039204;28;20039;-60
2022/07/16 05:31:52;;;;;;;6.13;2.00;;;24.40;54.80;;;;;;5036346;28;20029;-62
2022/07/16 05:34:18;;;;;;;41.60;6.10;;;24.40;54.80;;;;;;5039940;28;20600;-61
2022/07/16 05:36:43;;;;;;;18.80;3.88;;;24.30;54.80;;;;;;5038999;28;20551;-61
2022/07/16 05:39:09;;;;;;;14.45;3.08;;;24.30;54.90;;;;;;5038210;28;20061;-60
2022/07/16 05:41:34;;;;;;;18.77;3.38;;;24.30;54.90;;;;;;5040895;28;20048;-60
2022/07/16 05:44:00;;;;;;;11.55;3.15;;;24.30;54.90;;;;;;5022535;28;20041;-61
2022/07/16 05:46:26;;;;;;;19.10;3.15;;;24.20;54.90;;;;;;5033813;28;20457;-61
2022/07/16 05:48:51;;;;;;;10.40;3.45;;;24.30;55.00;;;;;;5037349;28;20041;-60
2022/07/16 05:51:17;;;;;;;15.82;3.65;;;24.30;55.00;;;;;;5038579;28;20029;-61
2022/07/16 05:53:42;;;;;;;17.02;2.70;;;24.30;55.00;;;;;;5040738;28;20045;-61
2022/07/16 05:56:08;;;;;;;10.95;3.22;;;24.30;55.00;;;;;;5038424;28;20025;-61
2022/07/16 05:58:33;;;;;;;11.35;3.00;;;24.30;55.00;;;;;;5035599;28;20021;-61
2022/07/16 06:00:59;;;;;;;15.00;3.30;;;24.20;55.10;;;;;;5040430;28;20724;-61
2022/07/16 06:03:24;;;;;;;8.70;2.70;;;24.20;55.10;;;;;;5039025;28;20037;-60
2022/07/16 06:05:50;;;;;;;9.13;2.83;;;24.10;55.80;;;;;;5040133;28;20481;-60
2022/07/16 06:08:15;;;;;;;9.32;2.90;;;24.10;55.30;;;;;;5040760;28;20079;-61
2022/07/16 06:10:41;;;;;;;8.05;2.63;;;24.10;55.40;;;;;;5038787;28;20365;-60
2022/07/16 06:13:07;;;;;;;17.75;2.63;;;24.10;55.40;;;;;;5038272;28;20069;-60
2022/07/16 06:15:32;;;;;;;12.63;2.50;;;24.00;55.40;;;;;;5039332;28;20045;-62
2022/07/16 06:17:58;;;;;;;6.70;2.97;;;24.00;55.50;;;;;;5038759;28;20538;-61
2022/07/16 06:20:24;;;;;;;9.65;2.75;;;24.00;55.60;;;;;;5042170;28;20030;-61
2022/07/16 06:22:49;;;;;;;8.73;2.83;;;24.00;55.70;;;;;;5040346;28;20033;-60
2022/07/16 06:25:15;;;;;;;10.82;2.63;;;23.90;55.80;;;;;;5042393;28;20032;-61
2022/07/16 06:27:44;;;;;;;10.13;2.50;;;23.90;55.90;;;;;;5039665;28;20103;-61
2022/07/16 06:30:10;;;;;;;5.13;2.45;;;23.90;56.00;;;;;;5040206;28;20025;-61
2022/07/16 06:32:36;;;;;;;8.25;2.25;;;23.90;56.10;;;;;;5025536;28;20420;-60
2022/07/16 06:35:01;;;;;;;9.32;2.70;;;23.90;56.10;;;;;;5041483;28;20029;-61
2022/07/16 06:37:27;;;;;;;11.20;2.70;;;23.90;56.20;;;;;;5042975;28;20048;-60
2022/07/16 06:39:52;;;;;;;11.02;2.45;;;23.90;56.30;;;;;;5040501;28;20064;-60
2022/07/16 06:42:18;;;;;;;8.93;2.78;;;23.90;56.30;;;;;;5042153;28;20040;-61
2022/07/16 06:44:43;;;;;;;6.93;2.30;;;23.90;56.30;;;;;;5041961;28;20032;-61
2022/07/16 06:47:09;;;;;;;6.93;2.95;;;23.90;56.30;;;;;;5042029;28;20029;-61
2022/07/16 06:49:34;;;;;;;7.25;2.35;;;23.80;56.30;;;;;;5041671;28;20066;-61
2022/07/16 06:52:00;;;;;;;6.45;2.50;;;23.90;56.30;;;;;;5040879;28;20314;-61
2022/07/16 06:54:25;;;;;;;7.90;2.35;;;23.80;56.30;;;;;;5042368;28;20068;-60
2022/07/16 06:56:51;;;;;;;8.75;2.50;;;23.80;56.50;;;;;;5041175;28;20080;-61
2022/07/16 06:59:16;;;;;;;5.72;2.67;;;23.80;56.70;;;;;;5040271;28;20054;-61
2022/07/16 07:01:42;;;;;;;5.65;2.53;;;23.80;56.70;;;;;;5041513;28;20063;-60
2022/07/16 07:04:07;;;;;;;6.75;2.65;;;23.80;56.70;;;;;;5041007;28;20033;-60
2022/07/16 07:06:33;;;;;;;7.03;2.42;;;23.70;56.70;;;;;;5041852;28;20416;-61
2022/07/16 07:08:58;;;;;;;9.30;2.70;;;23.80;56.90;;;;;;5040130;28;20029;-61
2022/07/16 07:11:24;;;;;;;9.85;2.60;;;23.80;56.90;;;;;;5043963;28;20041;-60
2022/07/16 07:13:49;;;;;;;4.22;2.30;;;23.80;56.90;;;;;;5040195;28;20025;-60
2022/07/16 07:16:16;;;;;;;8.43;2.53;;;23.70;56.80;;;;;;5040185;28;20326;-61
2022/07/16 07:18:41;;;;;;;4.47;2.10;;;23.80;56.90;;;;;;5034637;28;20041;-60
2022/07/16 07:21:07;;;;;;;6.45;2.00;;;23.70;56.90;;;;;;5031497;28;20029;-61
2022/07/16 07:23:32;;;;;;;8.35;2.38;;;23.70;57.00;;;;;;5042390;28;20117;-61
2022/07/16 07:25:58;;;;;;;3.47;2.33;;;23.70;57.20;;;;;;5039940;28;20047;-60
2022/07/16 07:28:23;;;;;;;9.52;2.88;;;23.70;57.50;;;;;;5038081;28;20036;-61
2022/07/16 07:30:49;;;;;;;13.52;2.90;;;23.60;57.70;;;;;;5037238;28;20385;-60
2022/07/16 07:33:14;;;;;;;5.63;2.67;;;23.60;57.90;;;;;;5037367;28;20129;-61
2022/07/16 07:35:40;;;;;;;56.58;8.35;;;23.60;58.00;;;;;;5040628;28;20028;-61
2022/07/16 07:38:06;;;;;;;7.13;2.70;;;23.60;58.20;;;;;;5040699;28;20116;-60
2022/07/16 07:40:31;;;;;;;7.28;2.45;;;23.50;58.20;;;;;;5020830;28;20744;-60
2022/07/16 07:42:59;;;;;;;25.80;3.30;;;23.50;58.10;;;;;;5032045;28;20044;-61
2022/07/16 07:45:25;;;;;;;11.00;2.78;;;23.50;58.30;;;;;;5001841;28;20041;-60
2022/07/16 07:47:50;;;;;;;16.77;3.28;;;23.50;58.40;;;;;;5007267;28;20383;-60
2022/07/16 07:50:16;;;;;;;25.92;5.32;;;23.50;58.50;;;;;;5031471;28;20051;-61
2022/07/16 07:52:41;;;;;;;13.20;3.40;;;23.40;58.50;;;;;;5038582;28;20029;-60
2022/07/16 07:55:08;;;;;;;23.42;3.30;;;23.40;58.50;;;;;;5043450;28;20032;-60
2022/07/16 07:57:33;;;;;;;46.47;6.68;;;23.40;58.60;;;;;;5040203;28;20025;-60
2022/07/16 07:59:59;;;;;;;29.92;4.85;;;23.40;58.60;;;;;;5039371;28;20021;-60
2022/07/16 08:02:25;;;;;;;10.27;3.00;;;23.40;58.70;;;;;;5039605;28;20512;-60
2022/07/16 08:04:52;;;;;;;5.25;2.78;;;23.40;58.60;;;;;;5007709;28;20029;-60
2022/07/16 08:07:17;;;;;;;12.13;2.80;;;23.40;58.80;;;;;;5038861;28;20032;-61
2022/07/16 08:09:43;;;;;;;10.85;2.45;;;23.40;58.70;;;;;;5023433;28;20029;-60
2022/07/16 08:12:09;;;;;;;16.15;2.67;;;23.40;58.80;;;;;;5042490;28;20029;-60
2022/07/16 08:14:34;;;;;;;11.70;3.03;;;23.40;58.80;;;;;;5026119;28;20110;-61
2022/07/16 08:17:00;;;;;;;14.25;2.83;;;23.40;59.20;;;;;;5035975;28;20076;-61
2022/07/16 08:19:25;;;;;;;14.80;2.95;;;23.40;59.20;;;;;;5032812;28;20219;-61
2022/07/16 08:21:51;;;;;;;18.30;3.42;;;23.30;59.20;;;;;;5020601;28;20045;-61
2022/07/16 08:27:01;;;;;;;22.20;3.42;;;23.40;59.30;;;;;;5034786;28;20055;-61
2022/07/16 08:29:26;;;;;;;33.97;4.45;;;23.40;59.40;;;;;;5036095;28;20029;-60
2022/07/16 08:31:52;;;;;;;20.55;3.90;;;23.40;59.90;;;;;;5037636;28;20029;-60
2022/07/16 08:34:18;;;;;;;31.48;4.28;;;23.40;59.50;;;;;;5037860;28;20135;-60
2022/07/16 08:36:43;;;;;;;18.05;4.22;;;23.40;59.50;;;;;;5037210;28;20025;-61
2022/07/16 08:39:09;;;;;;;24.30;4.13;;;23.40;59.30;;;;;;5035557;28;20041;-60
2022/07/16 08:41:34;;;;;;;35.90;5.53;;;23.50;59.40;;;;;;5033248;28;20106;-60
2022/07/16 08:44:00;;;;;;;25.13;4.53;;;23.50;59.30;;;;;;5034255;28;20346;-61
2022/07/16 08:46:26;;;;;;;28.48;5.30;;;23.50;59.30;;;;;;5037860;28;20041;-61
2022/07/16 08:48:52;;;;;;;32.88;5.53;;;23.60;59.40;;;;;;5034790;28;20033;-61
2022/07/16 08:51:20;;;;;;;53.05;6.93;;;23.50;59.00;;;;;;5038038;28;20036;-60
2022/07/16 08:53:45;;;;;;;49.28;7.20;;;23.60;59.20;;;;;;5035271;28;20029;-61
2022/07/16 08:56:11;;;;;;;51.03;7.60;;;23.60;59.10;;;;;;5035799;28;20040;-61
2022/07/16 08:58:36;;;;;;;51.40;8.52;;;23.70;59.30;;;;;;5035658;28;20104;-61
2022/07/16 09:01:02;;;;;;;47.83;7.28;;;23.70;59.10;;;;;;5033259;28;20521;-60
2022/07/16 09:03:28;;;;;;;50.28;7.95;;;23.70;59.00;;;;;;5019410;28;20032;-60
2022/07/16 09:05:53;;;;;;;43.15;6.53;;;23.70;58.90;;;;;;5016026;28;20358;-61
2022/07/16 09:08:19;;;;;;;55.05;7.03;;;23.70;58.70;;;;;;5028706;28;20107;-61
2022/07/16 09:10:44;;;;;;;49.13;6.75;;;23.70;58.60;;;;;;5035224;28;20040;-61
2022/07/16 09:13:10;;;;;;;40.38;7.30;;;23.70;58.60;;;;;;5031480;28;20522;-60
2022/07/16 09:15:37;;;;;;;47.28;7.45;;;23.80;58.70;;;;;;5029793;28;20712;-61
2022/07/16 09:18:13;;;;;;;56.45;6.75;;;23.80;58.70;;;;;;5028616;28;20132;-61
2022/07/16 09:20:40;;;;;;;53.33;8.02;;;23.80;58.50;;;;;;5032999;28;20036;-61
2022/07/16 09:23:39;;;;;;;53.65;6.53;;;23.80;58.60;;;;;;5016121;28;20076;-61
2022/07/16 09:26:09;;;;;;;63.28;7.70;;;23.90;58.60;;;;;;5017557;28;20037;-61
2022/07/16 09:28:50;;;;;;;69.00;8.73;;;23.80;58.40;;;;;;5025332;28;20222;-60
2022/07/16 09:31:38;;;;;;;42.20;7.05;;;23.90;58.50;;;;;;5031532;28;20025;-61
2022/07/16 09:34:13;;;;;;;51.70;8.07;;;23.70;58.20;;;;;;5031602;28;20561;-61
2022/07/16 09:36:40;;;;;;;54.80;7.38;;;23.90;58.30;;;;;;5028855;28;20094;-63
2022/07/16 09:39:07;;;;;;;50.08;7.75;;;24.00;59.40;;;;;;4999566;28;20045;-61
2022/07/16 09:41:43;;;;;;;58.50;8.00;;;24.00;58.50;;;;;;5027534;28;20044;-60
2022/07/16 09:44:19;;;;;;;43.20;6.57;;;24.10;58.50;;;;;;5014975;28;20130;-60
2022/07/16 09:47:06;;;;;;;74.88;7.60;;;24.10;58.30;;;;;;5013092;28;20099;-61
2022/07/16 09:49:36;;;;;;;49.22;7.20;;;24.10;58.40;;;;;;5031342;28;21606;-61
2022/07/16 09:52:06;;;;;;;40.50;6.15;;;24.00;58.40;;;;;;5012303;28;20360;-61
2022/07/16 09:54:33;;;;;;;67.53;7.70;;;24.10;58.40;;;;;;5020700;28;20068;-61
2022/07/16 09:57:13;;;;;;;41.38;6.30;;;24.10;58.50;;;;;;5030855;28;20072;-61
2022/07/16 09:59:39;;;;;;;24.33;4.82;;;24.10;58.20;;;;;;5035576;28;20110;-61
2022/07/16 10:02:04;;;;;;;49.28;7.30;;;24.10;57.90;;;;;;5035314;28;20028;-61
2022/07/16 10:04:30;;;;;;;44.15;6.78;;;24.20;58.00;;;;;;5021156;28;20649;-61
2022/07/16 10:06:56;;;;;;;37.85;7.07;;;24.10;58.20;;;;;;5035248;28;20098;-61
2022/07/16 10:09:22;;;;;;;61.35;8.57;;;24.20;58.00;;;;;;5038179;28;20457;-61
2022/07/16 10:11:47;;;;;;;39.90;7.53;;;24.20;58.10;;;;;;5036059;28;20134;-60
2022/07/16 10:14:13;;;;;;;71.07;9.65;;;24.20;57.90;;;;;;5029500;28;20033;-60
2022/07/16 10:16:43;;;;;;;74.55;8.18;;;24.30;57.90;;;;;;5037935;28;20028;-60
2022/07/16 10:19:09;;;;;;;58.55;8.38;;;24.30;57.80;;;;;;5034821;28;20461;-60
2022/07/16 10:21:35;;;;;;;78.10;9.85;;;24.40;57.80;;;;;;5036338;28;20032;-60
2022/07/16 10:24:05;;;;;;;58.22;8.85;;;24.40;57.70;;;;;;5035043;28;20093;-60
2022/07/16 10:26:32;;;;;;;53.22;7.85;;;24.40;57.60;;;;;;5030909;28;20034;-60
2022/07/16 10:28:57;;;;;;;29.35;5.63;;;24.40;57.70;;;;;;5021865;28;20021;-60
2022/07/16 10:31:38;;;;;;;44.70;6.32;;;24.40;57.10;;;;;;5034032;28;20162;-61
2022/07/16 10:34:12;;;;;;;53.63;8.00;;;24.50;56.90;;;;;;5017661;28;20143;-60
2022/07/16 10:36:48;;;;;;;57.63;7.50;;;24.50;56.90;;;;;;5035728;28;20587;-60
2022/07/16 10:39:16;;;;;;;;;;;24.50;57.40;;;;;;5029519;28;20134;-60
2022/07/16 10:41:49;;;;;;;41.17;7.10;;;24.50;56.70;;;;;;5032054;28;20558;-60
2022/07/16 10:44:15;;;;;;;46.85;6.60;;;24.60;56.80;;;;;;5014797;28;20995;-61
2022/07/16 10:47:00;;;;;;;55.50;6.55;;;24.60;56.70;;;;;;5029016;28;20027;-61
2022/07/16 10:49:27;;;;;;;46.03;6.90;;;24.70;56.70;;;;;;5015470;28;20160;-60
2022/07/16 10:51:59;;;;;;;63.47;7.53;;;24.80;56.80;;;;;;5020689;28;20013;-64
2022/07/16 10:54:29;;;;;;;54.97;7.32;;;24.80;56.50;;;;;;5033672;28;20083;-60
2022/07/16 10:56:56;;;;;;;54.70;7.25;;;24.90;56.70;;;;;;5029703;28;20136;-60
2022/07/16 10:59:24;;;;;;;50.35;6.85;;;25.00;56.70;;;;;;5018176;28;20029;-60
2022/07/16 11:01:51;;;;;;;40.97;5.47;;;25.00;56.30;;;;;;5032845;28;20020;-61
2022/07/16 11:04:28;;;;;;;25.20;4.38;;;25.10;56.10;;;;;;5029252;28;20032;-60
2022/07/16 11:06:54;;;;;;;78.20;8.27;;;25.20;55.90;;;;;;5033017;28;20127;-60
2022/07/16 11:09:34;;;;;;;31.67;4.93;;;25.20;55.90;;;;;;5033105;28;20021;-61
2022/07/16 11:12:14;;;;;;;21.75;4.72;;;25.30;55.50;;;;;;5018806;28;20106;-60
2022/07/16 11:14:40;;;;;;;21.98;3.90;;;25.40;55.30;;;;;;5016424;28;20032;-60
2022/07/16 11:17:06;;;;;;;27.27;4.43;;;25.50;55.20;;;;;;5035201;28;20127;-60
2022/07/16 11:19:39;;;;;;;31.23;4.57;;;25.60;55.20;;;;;;5016746;28;20025;-60
2022/07/16 11:22:04;;;;;;;30.40;4.93;;;25.70;54.90;;;;;;5032207;28;20112;-60
2022/07/16 11:24:30;;;;;;;22.35;5.10;;;25.70;54.70;;;;;;5029381;28;20120;-60
2022/07/16 11:26:56;;;;;;;23.83;4.28;;;25.90;54.60;;;;;;5027401;28;20040;-61
2022/07/16 11:29:24;;;;;;;28.65;4.43;;;25.90;54.40;;;;;;5029884;28;20049;-60
2022/07/16 11:31:49;;;;;;;36.40;6.13;;;26.00;54.40;;;;;;5019458;28;20361;-60
2022/07/16 11:34:18;;;;;;;68.75;7.07;;;26.00;54.30;;;;;;5031482;28;20032;-60
2022/07/16 11:36:45;;;;;;;35.45;5.90;;;26.10;54.20;;;;;;5037702;28;20024;-60
2022/07/16 11:39:16;;;;;;;33.80;4.72;;;26.20;54.10;;;;;;5040178;28;20086;-60
2022/07/16 11:41:43;;;;;;;14.38;4.20;;;26.30;53.80;;;;;;5018891;28;20092;-60
2022/07/16 11:44:14;;;;;;;24.20;3.75;;;26.40;53.50;;;;;;5016345;28;20025;-61
2022/07/16 11:46:47;;;;;;;19.48;4.28;;;26.40;53.30;;;;;;5014466;28;20115;-64
2022/07/16 11:49:22;;;;;;;27.08;4.07;;;26.50;53.40;;;;;;5034576;28;20020;-63
2022/07/16 11:51:47;;;;;;;10.45;2.72;;;26.60;53.20;;;;;;5018846;28;20230;-63
2022/07/16 11:54:13;;;;;;;17.30;3.78;;;26.60;53.00;;;;;;5038676;28;20041;-63
2022/07/16 11:56:40;;;;;;;31.63;3.80;;;26.80;52.80;;;;;;5032175;28;20378;-63
2022/07/16 11:59:22;;;;;;;18.40;3.80;;;26.80;52.90;;;;;;5028319;28;20220;-62
2022/07/16 12:02:06;;;;;;;20.70;3.58;;;26.80;52.70;;;;;;5029142;28;20118;-62
2022/07/16 12:04:34;;;;;;;22.35;3.40;;;26.90;52.60;;;;;;5019149;28;20037;-63
2022/07/16 12:07:00;;;;;;;19.15;4.22;;;26.90;52.60;;;;;;5038695;28;20033;-62
2022/07/16 12:09:45;;;;;;;20.98;3.38;;;27.00;52.50;;;;;;5020863;28;20032;-63
2022/07/16 12:12:18;;;;;;;20.90;3.53;;;27.20;52.60;;;;;;5028623;28;20721;-62
2022/07/16 12:15:07;;;;;;;29.10;3.72;;;27.10;52.30;;;;;;5033637;28;20056;-62
2022/07/16 12:17:33;;;;;;;19.70;4.38;;;27.20;52.10;;;;;;5031094;28;20030;-63
2022/07/16 12:20:16;;;;;;;15.43;3.10;;;27.30;51.80;;;;;;5025572;28;20561;-63
2022/07/16 12:22:50;;;;;;;17.50;3.92;;;27.40;51.50;;;;;;5015881;28;20045;-62
2022/07/16 12:25:28;;;;;;;14.65;2.90;;;27.40;51.50;;;;;;5017148;28;20021;-63
2022/07/16 12:27:55;;;;;;;23.77;3.70;;;27.40;51.30;;;;;;5034318;28;20032;-63
2022/07/16 12:30:35;;;;;;;23.52;3.28;;;27.50;51.20;;;;;;5030762;28;20029;-63
2022/07/16 12:33:02;;;;;;;18.15;3.60;;;27.50;51.30;;;;;;5028388;28;20028;-63
2022/07/16 12:35:37;;;;;;;19.00;4.80;;;27.60;51.10;;;;;;5018301;28;20021;-63
2022/07/16 12:38:03;;;;;;;21.20;5.72;;;27.70;51.20;;;;;;5039858;28;20601;-61
2022/07/16 12:40:28;;;;;;;16.15;5.13;;;27.70;51.10;;;;;;5041572;28;20106;-61
2022/07/16 12:42:54;;;;;;;20.02;4.50;;;27.70;50.90;;;;;;5031813;28;20182;-61
2022/07/16 12:45:19;;;;;;;16.42;3.60;;;27.80;50.90;;;;;;5020499;28;20025;-61
2022/07/16 12:47:45;;;;;;;25.88;4.15;;;27.90;50.40;;;;;;5019688;28;20371;-61
2022/07/16 12:50:10;;;;;;;17.10;3.83;;;27.90;50.20;;;;;;5037091;28;20694;-62
2022/07/16 12:52:36;;;;;;;21.65;4.07;;;28.00;50.20;;;;;;5034255;28;20094;-62